Time;durP1;ratioP1;P1;durP2;ratioP2;P2;SDS_P1;SDS_P2;PMS_P1;PMS_P2;Temp;Humidity;BMP_temperature;BMP_pressure;BME280_temperature;BME280_humidity;BME280_pressure;Samples;Min_cycle;Max_cycle;Signal;HPM_P1;HPM_P2
2023/01/20 00:02:15;;;;;;;7.85;2.40;;;-0.20;99.90;;;;;;5079596;28;20049;-58
2023/01/20 00:04:41;;;;;;;5.53;2.05;;;-0.30;99.90;;;;;;5083817;28;20072;-59
2023/01/20 00:07:06;;;;;;;5.78;2.28;;;0.00;99.90;;;;;;5101089;28;20040;-59
2023/01/20 00:09:32;;;;;;;7.15;2.30;;;0.00;99.90;;;;;;5103600;28;20040;-58
2023/01/20 00:11:58;;;;;;;6.20;2.08;;;0.00;99.90;;;;;;5082640;28;20051;-58
2023/01/20 00:14:24;;;;;;;6.10;2.55;;;-0.30;99.90;;;;;;5103311;28;20028;-59
2023/01/20 00:16:50;;;;;;;6.03;2.60;;;0.10;99.90;;;;;;5103098;28;20044;-58
2023/01/20 00:19:16;;;;;;;6.35;2.67;;;0.20;99.90;;;;;;5101462;28;20396;-56
2023/01/20 00:21:41;;;;;;;8.07;3.05;;;0.20;99.90;;;;;;5102863;28;20040;-59
2023/01/20 00:24:07;;;;;;;6.20;2.58;;;-0.20;99.90;;;;;;5100453;28;20086;-58
2023/01/20 00:26:33;;;;;;;8.68;2.92;;;-0.10;99.90;;;;;;5093680;28;20071;-59
2023/01/20 00:28:59;;;;;;;7.00;3.45;;;-0.10;99.90;;;;;;5100592;28;20508;-59
2023/01/20 00:31:26;;;;;;;9.45;3.38;;;0.40;99.90;;;;;;5102693;28;20063;-58
2023/01/20 00:33:54;;;;;;;6.50;3.13;;;0.20;99.90;;;;;;5102129;28;20040;-58
2023/01/20 00:36:21;;;;;;;7.68;3.15;;;0.10;99.90;;;;;;5100684;28;20060;-59
2023/01/20 00:38:48;;;;;;;5.90;2.70;;;0.20;99.90;;;;;;5103407;28;20415;-59
2023/01/20 00:41:14;;;;;;;6.60;2.40;;;-0.20;99.90;;;;;;5100248;28;20032;-58
2023/01/20 00:43:40;;;;;;;4.93;2.10;;;-0.20;99.90;;;;;;5102779;28;20104;-58
2023/01/20 00:46:06;;;;;;;6.95;2.60;;;-0.10;99.90;;;;;;5100280;28;20028;-59
2023/01/20 00:48:32;;;;;;;6.93;3.05;;;0.00;99.90;;;;;;5099795;28;20036;-59
2023/01/20 00:50:58;;;;;;;6.05;2.90;;;0.00;99.90;;;;;;5101628;28;20100;-59
2023/01/20 00:53:24;;;;;;;7.00;3.00;;;-0.40;99.90;;;;;;5081189;28;20118;-58
2023/01/20 00:55:50;;;;;;;7.28;3.05;;;-0.50;99.90;;;;;;5082699;28;20079;-59
2023/01/20 00:58:15;;;;;;;7.32;2.88;;;-0.30;99.90;;;;;;5089560;28;20045;-58
2023/01/20 01:00:41;;;;;;;9.95;3.63;;;-0.20;99.90;;;;;;5091229;28;20044;-58
2023/01/20 01:03:09;;;;;;;7.43;3.30;;;0.00;99.90;;;;;;5099787;28;20504;-57
2023/01/20 01:05:35;;;;;;;16.15;5.00;;;-0.10;99.90;;;;;;5090776;28;20041;-59
2023/01/20 01:08:01;;;;;;;18.95;5.00;;;-0.10;99.90;;;;;;5081276;28;20064;-58
2023/01/20 01:10:26;;;;;;;11.55;5.15;;;-0.50;99.90;;;;;;5080601;28;20037;-59
2023/01/20 01:12:52;;;;;;;18.30;5.85;;;-0.70;99.90;;;;;;5081847;28;20075;-58
2023/01/20 01:15:18;;;;;;;17.55;5.43;;;-0.10;99.90;;;;;;5078296;28;20037;-58
2023/01/20 01:17:43;;;;;;;18.25;6.22;;;-0.50;99.90;;;;;;5082213;28;20075;-58
2023/01/20 01:20:12;;;;;;;29.25;8.10;;;-0.20;99.90;;;;;;5079886;28;20128;-59
2023/01/20 01:22:38;;;;;;;22.45;6.72;;;-0.40;99.90;;;;;;5091156;28;20043;-59
2023/01/20 01:25:05;;;;;;;19.50;6.57;;;-0.10;99.90;;;;;;5088415;28;20067;-58
2023/01/20 01:27:31;;;;;;;26.98;7.85;;;-0.10;99.90;;;;;;5080452;28;20138;-59
2023/01/20 01:29:57;;;;;;;29.08;7.40;;;-0.40;99.90;;;;;;5081941;28;20048;-59
2023/01/20 01:32:23;;;;;;;25.15;8.30;;;-0.10;99.90;;;;;;5078704;28;20057;-58
2023/01/20 01:34:49;;;;;;;40.65;8.43;;;-0.50;99.90;;;;;;5081647;28;20043;-54
2023/01/20 01:37:14;;;;;;;39.75;9.15;;;-0.10;99.90;;;;;;5078844;28;20048;-58
2023/01/20 01:39:40;;;;;;;33.65;8.52;;;-0.10;99.90;;;;;;5081687;28;20051;-58
2023/01/20 01:42:14;;;;;;;32.38;9.32;;;0.10;99.90;;;;;;5079376;28;20059;-59
2023/01/20 01:45:10;;;;;;;28.98;8.82;;;0.00;99.90;;;;;;5080252;28;20037;-59
2023/01/20 01:47:40;;;;;;;43.83;8.73;;;-0.40;99.90;;;;;;5081405;28;20063;-59
2023/01/20 01:50:08;;;;;;;27.75;7.97;;;-0.50;99.90;;;;;;5078731;28;20067;-59
2023/01/20 01:52:33;;;;;;;24.00;7.95;;;-0.10;99.90;;;;;;5081356;28;20048;-59
2023/01/20 01:55:00;;;;;;;28.13;8.15;;;-0.40;99.90;;;;;;5094666;28;20051;-58
2023/01/20 01:57:28;;;;;;;22.65;8.15;;;-0.40;99.90;;;;;;5081952;28;20048;-59
2023/01/20 01:59:53;;;;;;;20.30;7.38;;;-0.50;99.90;;;;;;5101053;28;20083;-59
2023/01/20 02:02:19;;;;;;;19.25;7.32;;;-0.40;99.90;;;;;;5079211;28;20045;-59
2023/01/20 02:04:45;;;;;;;17.20;7.90;;;-0.10;99.90;;;;;;5081097;28;20134;-59
2023/01/20 02:07:14;;;;;;;14.30;7.55;;;-0.50;99.90;;;;;;5086986;28;20064;-58
2023/01/20 02:09:41;;;;;;;18.88;8.77;;;0.00;99.90;;;;;;5067357;28;20084;-57
2023/01/20 02:12:13;;;;;;;15.55;7.70;;;-0.10;99.90;;;;;;5078804;28;20036;-58
2023/01/20 02:14:47;;;;;;;;;;;-0.40;99.90;;;;;;5080716;28;20037;-58
2023/01/20 02:17:43;;;;;;;14.55;6.93;;;-0.50;99.90;;;;;;5082037;28;19920;-57
2023/01/20 02:20:15;;;;;;;14.50;7.00;;;-0.20;99.90;;;;;;5060132;28;20404;-57
2023/01/20 02:23:01;;;;;;;15.60;7.30;;;-0.60;99.90;;;;;;5080725;28;20051;-57
2023/01/20 02:26:05;;;;;;;15.20;7.65;;;-0.30;99.90;;;;;;5080556;28;20041;-57
2023/01/20 02:29:01;;;;;;;16.17;8.30;;;-0.30;99.90;;;;;;5077462;28;20052;-58
2023/01/20 02:31:45;;;;;;;14.05;7.10;;;-0.30;99.90;;;;;;5080410;28;20052;-57
2023/01/20 02:34:19;;;;;;;13.88;6.85;;;-0.40;99.90;;;;;;5080611;28;20049;-57
2023/01/20 02:36:56;;;;;;;16.02;7.25;;;-0.30;99.90;;;;;;5077615;28;20058;-57
2023/01/20 02:39:34;;;;;;;14.88;7.53;;;-0.50;99.90;;;;;;5080345;28;20106;-58
2023/01/20 02:42:48;;;;;;;14.50;7.10;;;-0.40;99.90;;;;;;5078229;28;20056;-58
2023/01/20 02:45:20;;;;;;;15.35;7.70;;;-0.30;99.90;;;;;;5053863;28;20085;-57
2023/01/20 02:48:09;;;;;;;15.63;7.60;;;-0.40;99.90;;;;;;5080494;28;20453;-57
2023/01/20 02:50:45;;;;;;;13.48;6.72;;;-0.40;99.90;;;;;;5081388;28;20055;-58
2023/01/20 02:53:13;;;;;;;15.82;7.55;;;-0.90;99.90;;;;;;5078840;28;20115;-58
2023/01/20 02:55:47;;;;;;;16.70;7.50;;;-0.40;99.90;;;;;;5046120;28;20070;-58
2023/01/20 02:58:23;;;;;;;15.93;7.75;;;-0.90;99.90;;;;;;5080327;28;20104;-58
2023/01/20 03:00:55;;;;;;;15.30;6.40;;;-0.40;99.90;;;;;;5083077;28;20055;-58
2023/01/20 03:03:30;;;;;;;13.60;6.82;;;-0.40;99.90;;;;;;5077740;28;20048;-59
2023/01/20 03:05:58;;;;;;;14.60;7.80;;;-0.50;99.90;;;;;;5079334;28;20501;-58
2023/01/20 03:08:28;;;;;;;15.10;7.78;;;-0.90;99.90;;;;;;5087178;28;20040;-58
2023/01/20 03:10:58;;;;;;;15.88;6.95;;;-0.90;99.90;;;;;;5086009;28;20044;-58
2023/01/20 03:13:49;;;;;;;14.15;7.13;;;-0.70;99.90;;;;;;5097413;28;20725;-58
2023/01/20 03:16:19;;;;;;;15.80;7.82;;;-0.40;99.90;;;;;;5079354;28;20059;-58
2023/01/20 03:18:44;;;;;;;15.60;7.15;;;-0.60;99.90;;;;;;5093547;28;20047;-58
2023/01/20 03:21:11;;;;;;;13.30;6.78;;;-0.50;99.90;;;;;;5097564;28;20051;-58
2023/01/20 03:23:53;;;;;;;14.18;7.50;;;-0.40;99.90;;;;;;5097778;28;20048;-58
2023/01/20 03:26:21;;;;;;;15.18;7.60;;;-0.60;99.90;;;;;;5100509;28;20046;-58
2023/01/20 03:28:48;;;;;;;18.33;8.70;;;-0.90;99.90;;;;;;5079236;28;20106;-58
2023/01/20 03:31:19;;;;;;;15.85;8.10;;;-0.50;99.90;;;;;;5100251;28;20385;-58
2023/01/20 03:33:47;;;;;;;15.35;8.10;;;-0.60;99.90;;;;;;5099217;28;20044;-58
2023/01/20 03:36:14;;;;;;;16.23;8.65;;;-1.00;99.90;;;;;;5098449;28;20036;-58
2023/01/20 03:38:40;;;;;;;17.38;8.13;;;-0.50;99.90;;;;;;5101236;28;20044;-57
2023/01/20 03:41:30;;;;;;;18.48;8.63;;;-0.60;99.90;;;;;;5101589;28;20500;-58
2023/01/20 03:44:36;;;;;;;16.45;8.98;;;-0.80;99.90;;;;;;5099990;28;20063;-58
2023/01/20 03:47:02;;;;;;;19.10;9.93;;;-0.50;99.90;;;;;;5001888;28;20051;-58
2023/01/20 03:49:48;;;;;;;22.15;10.57;;;-0.20;99.90;;;;;;5084332;28;20086;-58
2023/01/20 03:52:23;;;;;;;23.45;10.73;;;-0.20;99.90;;;;;;5100676;28;20048;-58
2023/01/20 03:55:21;;;;;;;24.65;12.05;;;-0.80;99.90;;;;;;5088184;28;20039;-57
2023/01/20 03:58:16;;;;;;;22.85;11.30;;;-0.70;99.90;;;;;;5047637;28;20049;-58
2023/01/20 04:00:44;;;;;;;24.65;12.02;;;-0.10;99.90;;;;;;5083559;28;20566;-58
2023/01/20 04:03:31;;;;;;;24.27;12.32;;;-0.30;99.90;;;;;;5080768;28;20304;-57
2023/01/20 04:06:03;;;;;;;22.92;11.55;;;-0.50;99.90;;;;;;5082454;28;20036;-57
2023/01/20 04:08:38;;;;;;;21.50;11.75;;;-0.40;99.90;;;;;;5088748;28;20074;-57
2023/01/20 04:11:05;;;;;;;24.75;12.75;;;0.10;99.90;;;;;;5091050;28;20443;-58
2023/01/20 04:13:31;;;;;;;25.13;11.80;;;-0.30;99.90;;;;;;5085646;28;20033;-58
2023/01/20 04:15:59;;;;;;;25.10;11.85;;;-0.30;99.90;;;;;;5080758;28;20036;-58
2023/01/20 04:18:25;;;;;;;29.65;14.05;;;-0.40;99.90;;;;;;5083015;28;20080;-58
2023/01/20 04:20:56;;;;;;;25.02;12.48;;;-0.40;99.90;;;;;;5082220;28;20051;-58
2023/01/20 04:23:28;;;;;;;23.42;11.63;;;0.20;99.90;;;;;;5063121;28;20085;-58
2023/01/20 04:25:53;;;;;;;28.20;13.17;;;0.30;99.90;;;;;;5083156;28;20044;-58
2023/01/20 04:28:19;;;;;;;24.52;12.13;;;0.30;99.90;;;;;;5080405;28;20300;-58
2023/01/20 04:30:44;;;;;;;30.73;15.05;;;-0.30;99.90;;;;;;5082982;28;20100;-58
2023/01/20 04:33:10;;;;;;;27.52;14.23;;;0.20;99.90;;;;;;5080479;28;20040;-58
2023/01/20 04:35:36;;;;;;;30.73;14.15;;;-0.40;99.90;;;;;;5082647;28;20052;-58
2023/01/20 04:38:01;;;;;;;32.33;12.68;;;-0.30;99.90;;;;;;5081981;28;20083;-58
2023/01/20 04:40:27;;;;;;;28.55;13.60;;;-0.40;99.90;;;;;;5081233;28;20056;-58
2023/01/20 04:42:53;;;;;;;27.23;12.40;;;-0.30;99.90;;;;;;5067266;28;20545;-56
2023/01/20 04:45:19;;;;;;;28.42;12.13;;;0.30;99.90;;;;;;5079960;28;20044;-59
2023/01/20 04:47:45;;;;;;;27.58;12.48;;;0.20;99.90;;;;;;5082812;28;20074;-58
2023/01/20 04:50:12;;;;;;;25.98;11.30;;;-0.10;99.90;;;;;;5078707;28;20052;-57
2023/01/20 04:52:38;;;;;;;27.15;12.40;;;-0.20;99.90;;;;;;5082221;28;20492;-58
2023/01/20 04:55:04;;;;;;;28.20;13.13;;;0.30;99.90;;;;;;5073723;28;20033;-58
2023/01/20 04:57:29;;;;;;;33.55;14.35;;;-0.20;99.90;;;;;;5081114;28;20118;-58
2023/01/20 04:59:55;;;;;;;28.45;12.85;;;0.00;99.90;;;;;;5082371;28;20040;-58
2023/01/20 05:02:21;;;;;;;28.08;11.73;;;0.00;99.90;;;;;;5079841;28;20052;-58
2023/01/20 05:04:46;;;;;;;26.98;12.50;;;-0.20;99.90;;;;;;5082540;28;20087;-58
2023/01/20 05:07:12;;;;;;;25.60;11.93;;;0.40;99.90;;;;;;5079658;28;20043;-57
2023/01/20 05:09:38;;;;;;;26.58;12.32;;;-0.10;99.90;;;;;;5047660;28;20471;-58
2023/01/20 05:12:04;;;;;;;26.95;12.68;;;0.20;99.90;;;;;;5080397;28;20048;-58
2023/01/20 05:14:29;;;;;;;24.77;11.70;;;0.50;99.90;;;;;;5081100;28;20040;-58
2023/01/20 05:16:55;;;;;;;28.50;12.38;;;0.40;99.90;;;;;;5082296;28;20062;-58
2023/01/20 05:19:21;;;;;;;27.95;12.48;;;0.40;99.90;;;;;;5079336;28;20047;-58
2023/01/20 05:21:46;;;;;;;27.80;13.05;;;-0.30;99.90;;;;;;5082001;28;20036;-57
2023/01/20 05:24:12;;;;;;;26.25;12.07;;;0.30;99.90;;;;;;5092928;28;20036;-58
2023/01/20 05:26:38;;;;;;;26.52;12.82;;;-0.20;99.90;;;;;;5102182;28;20048;-58
2023/01/20 05:29:03;;;;;;;26.52;11.52;;;0.40;99.90;;;;;;5100241;28;20032;-58
2023/01/20 05:31:29;;;;;;;26.27;12.68;;;0.30;99.90;;;;;;5101339;28;20051;-58
2023/01/20 05:33:55;;;;;;;28.25;13.07;;;0.30;99.90;;;;;;5072208;28;20036;-57
2023/01/20 05:36:21;;;;;;;26.48;12.38;;;0.00;99.90;;;;;;5078831;28;20086;-58
2023/01/20 05:38:46;;;;;;;27.63;12.52;;;0.20;99.90;;;;;;5081736;28;20041;-58
2023/01/20 05:41:12;;;;;;;29.13;12.90;;;-0.10;99.90;;;;;;5078984;28;20100;-58
2023/01/20 05:43:38;;;;;;;29.80;13.00;;;-0.10;99.90;;;;;;5081555;28;20086;-58
2023/01/20 05:46:04;;;;;;;28.00;12.35;;;0.10;99.90;;;;;;5079184;28;20041;-58
2023/01/20 05:48:30;;;;;;;28.88;13.23;;;0.00;99.90;;;;;;5081141;28;20516;-58
2023/01/20 05:50:56;;;;;;;25.92;11.70;;;0.20;99.90;;;;;;5080543;28;20216;-58
2023/01/20 05:53:22;;;;;;;26.27;12.77;;;0.30;99.90;;;;;;5080663;28;20044;-58
2023/01/20 05:55:47;;;;;;;29.55;13.60;;;0.40;99.90;;;;;;5101759;28;20044;-57
2023/01/20 05:58:13;;;;;;;27.48;11.77;;;0.20;99.90;;;;;;5098883;28;20391;-58
2023/01/20 06:00:39;;;;;;;27.25;13.20;;;0.00;99.90;;;;;;5082693;28;20047;-58
2023/01/20 06:03:05;;;;;;;28.63;13.05;;;0.10;99.90;;;;;;5092988;28;20043;-58
2023/01/20 06:05:30;;;;;;;27.73;13.18;;;0.30;99.90;;;;;;5097371;28;20056;-57
2023/01/20 06:07:57;;;;;;;27.45;12.30;;;-0.30;99.90;;;;;;5096270;28;20040;-58
2023/01/20 06:10:24;;;;;;;25.70;12.68;;;0.30;99.90;;;;;;5092285;28;20764;-58
2023/01/20 06:12:56;;;;;;;29.30;13.60;;;0.30;99.90;;;;;;5086778;28;20036;-57
2023/01/20 06:15:22;;;;;;;28.10;12.75;;;0.30;99.90;;;;;;5084438;28;20055;-58
2023/01/20 06:17:51;;;;;;;27.88;13.27;;;-0.30;99.90;;;;;;5097071;28;20062;-57
2023/01/20 06:20:18;;;;;;;31.67;12.77;;;-0.10;99.90;;;;;;5094529;28;20308;-58
2023/01/20 06:22:44;;;;;;;26.92;12.00;;;-0.20;99.90;;;;;;5097192;28;20040;-57
2023/01/20 06:25:09;;;;;;;26.48;12.35;;;0.00;99.90;;;;;;5096228;28;20068;-58
2023/01/20 06:27:36;;;;;;;31.50;12.90;;;0.10;99.90;;;;;;5095302;28;20033;-58
2023/01/20 06:30:05;;;;;;;28.55;12.65;;;0.40;99.90;;;;;;5078833;28;20130;-58
2023/01/20 06:32:31;;;;;;;27.77;13.68;;;0.00;99.90;;;;;;5093635;28;20051;-58
2023/01/20 06:34:56;;;;;;;31.27;13.18;;;-0.10;99.90;;;;;;5096506;28;20442;-58
2023/01/20 06:37:22;;;;;;;29.35;14.00;;;0.20;99.90;;;;;;5094037;28;20094;-58
2023/01/20 06:39:48;;;;;;;27.63;11.65;;;-0.10;99.90;;;;;;5096904;28;20047;-57
2023/01/20 06:42:13;;;;;;;34.60;13.70;;;0.00;99.90;;;;;;5095436;28;20526;-58
2023/01/20 06:44:39;;;;;;;34.30;14.20;;;0.50;99.90;;;;;;5095132;28;20503;-58
2023/01/20 06:47:05;;;;;;;31.70;13.73;;;0.50;99.90;;;;;;5078765;28;20037;-58
2023/01/20 06:49:32;;;;;;;29.85;14.48;;;0.00;99.90;;;;;;5093793;28;20051;-58
2023/01/20 06:51:58;;;;;;;28.80;12.82;;;0.20;99.90;;;;;;5096421;28;20067;-58
2023/01/20 06:54:24;;;;;;;32.58;15.82;;;0.50;99.90;;;;;;5083672;28;20519;-58
2023/01/20 06:56:50;;;;;;;36.03;14.95;;;0.30;99.90;;;;;;5081226;28;20120;-58
2023/01/20 06:59:15;;;;;;;31.88;14.80;;;0.20;99.90;;;;;;5084893;28;20036;-58
2023/01/20 07:01:41;;;;;;;35.22;15.32;;;-0.20;99.90;;;;;;5088435;28;20050;-58
2023/01/20 07:04:08;;;;;;;34.08;15.85;;;-0.20;99.90;;;;;;5096793;28;20093;-58
2023/01/20 07:06:39;;;;;;;29.50;13.02;;;0.70;99.90;;;;;;5093829;28;20242;-58
2023/01/20 07:09:07;;;;;;;36.47;15.85;;;0.40;99.90;;;;;;5096476;28;20075;-59
2023/01/20 07:11:36;;;;;;;32.97;14.32;;;0.40;99.90;;;;;;5093276;28;20043;-58
2023/01/20 07:14:03;;;;;;;33.03;13.52;;;0.20;99.90;;;;;;5097518;28;20432;-59
2023/01/20 07:16:29;;;;;;;34.58;15.05;;;0.00;99.90;;;;;;5099232;28;20360;-56
2023/01/20 07:18:55;;;;;;;33.72;15.18;;;-0.10;99.90;;;;;;5080861;28;20286;-58
2023/01/20 07:21:20;;;;;;;30.58;14.15;;;0.50;99.90;;;;;;5101028;28;20066;-59
2023/01/20 07:23:46;;;;;;;31.65;13.70;;;0.20;99.90;;;;;;5097974;28;20078;-58
2023/01/20 07:26:15;;;;;;;24.90;11.07;;;-0.10;99.90;;;;;;5103637;28;20058;-58
2023/01/20 07:28:41;;;;;;;23.65;10.40;;;-0.10;99.90;;;;;;5100483;28;20144;-57
2023/01/20 07:31:11;;;;;;;28.35;12.25;;;0.30;99.90;;;;;;5102932;28;20040;-58
2023/01/20 07:33:37;;;;;;;27.20;10.80;;;0.40;99.90;;;;;;5081418;28;20044;-57
2023/01/20 07:36:05;;;;;;;27.65;11.85;;;0.00;99.90;;;;;;5083673;28;20079;-58
2023/01/20 07:38:31;;;;;;;26.55;10.27;;;0.40;99.90;;;;;;5072665;28;20072;-58
2023/01/20 07:40:58;;;;;;;25.58;10.13;;;0.00;99.90;;;;;;5079746;28;20516;-58
2023/01/20 07:43:24;;;;;;;26.23;11.25;;;0.00;99.90;;;;;;5065305;28;20056;-57
2023/01/20 07:45:53;;;;;;;24.25;10.05;;;0.40;99.90;;;;;;5080622;28;20475;-58
2023/01/20 07:48:19;;;;;;;27.23;11.65;;;0.40;99.90;;;;;;5083686;28;20521;-58
2023/01/20 07:50:45;;;;;;;24.77;11.07;;;0.50;99.90;;;;;;5082721;28;20040;-57
2023/01/20 07:53:10;;;;;;;24.20;11.23;;;0.10;99.90;;;;;;5089099;28;20127;-58
2023/01/20 07:55:36;;;;;;;23.25;10.13;;;0.40;99.90;;;;;;5085071;28;20037;-58
2023/01/20 07:58:02;;;;;;;24.77;10.77;;;0.30;99.90;;;;;;5080569;28;20028;-58
2023/01/20 08:00:27;;;;;;;30.50;13.02;;;0.00;99.90;;;;;;5083716;28;20059;-58
2023/01/20 08:02:53;;;;;;;31.23;12.55;;;0.40;99.90;;;;;;5095393;28;20040;-58
2023/01/20 08:05:19;;;;;;;22.70;11.95;;;0.40;99.90;;;;;;5103929;28;20165;-58
2023/01/20 08:07:49;;;;;;;24.67;10.65;;;0.40;99.90;;;;;;5101946;28;20048;-58
2023/01/20 08:10:15;;;;;;;23.90;11.48;;;0.00;99.90;;;;;;5102180;28;20579;-57
2023/01/20 08:12:41;;;;;;;25.25;10.85;;;0.40;99.90;;;;;;5092687;28;20102;-58
2023/01/20 08:15:07;;;;;;;24.75;11.70;;;0.50;99.90;;;;;;5080746;28;20041;-58
2023/01/20 08:17:33;;;;;;;27.50;11.73;;;0.30;99.90;;;;;;5065155;28;20052;-58
2023/01/20 08:19:58;;;;;;;30.95;12.85;;;0.10;99.90;;;;;;5080528;28;20127;-59
2023/01/20 08:22:24;;;;;;;25.02;12.40;;;0.30;99.90;;;;;;5083022;28;20596;-58
2023/01/20 08:24:50;;;;;;;26.23;11.40;;;0.20;99.90;;;;;;5063250;28;20124;-58
2023/01/20 08:27:16;;;;;;;30.08;13.13;;;0.10;99.90;;;;;;5081756;28;20072;-58
2023/01/20 08:29:41;;;;;;;25.60;12.32;;;0.60;99.90;;;;;;5082738;28;20040;-57
2023/01/20 08:32:07;;;;;;;24.80;11.70;;;0.10;99.90;;;;;;5080272;28;20099;-58
2023/01/20 08:34:33;;;;;;;25.55;11.18;;;0.70;99.90;;;;;;5083019;28;20049;-58
2023/01/20 08:36:59;;;;;;;28.10;12.90;;;0.60;99.90;;;;;;5079735;28;20060;-58
2023/01/20 08:39:25;;;;;;;28.60;13.57;;;0.10;99.90;;;;;;5082718;28;20091;-58
2023/01/20 08:41:51;;;;;;;30.60;13.85;;;0.20;99.90;;;;;;5080447;28;20037;-57
2023/01/20 08:44:17;;;;;;;30.55;13.32;;;0.50;99.90;;;;;;5082026;28;20072;-58
2023/01/20 08:46:43;;;;;;;31.05;14.02;;;0.50;99.90;;;;;;5082552;28;20037;-58
2023/01/20 08:49:15;;;;;;;30.98;13.20;;;0.60;99.90;;;;;;5061943;28;20037;-58
2023/01/20 08:51:41;;;;;;;29.70;12.75;;;0.40;99.90;;;;;;5077555;28;20135;-58
2023/01/20 08:54:07;;;;;;;28.08;11.40;;;0.70;99.90;;;;;;5083548;28;20041;-58
2023/01/20 08:56:34;;;;;;;24.65;11.20;;;0.40;99.90;;;;;;5098932;28;20128;-58
2023/01/20 08:59:01;;;;;;;28.55;12.93;;;0.60;99.90;;;;;;5096701;28;20074;-58
2023/01/20 09:01:29;;;;;;;32.28;13.57;;;0.50;99.90;;;;;;5079602;28;20468;-57
2023/01/20 09:03:56;;;;;;;27.25;12.30;;;0.80;99.90;;;;;;5063225;28;20508;-57
2023/01/20 09:06:21;;;;;;;28.63;13.18;;;0.70;99.90;;;;;;5075997;28;20048;-58
2023/01/20 09:08:48;;;;;;;31.75;14.88;;;0.60;99.90;;;;;;5086055;28;20036;-58
2023/01/20 09:11:17;;;;;;;31.38;13.43;;;0.60;99.90;;;;;;5075581;28;20044;-57
2023/01/20 09:13:43;;;;;;;30.83;12.82;;;0.40;99.90;;;;;;5059762;28;20044;-58
2023/01/20 09:16:11;;;;;;;29.35;13.10;;;0.40;99.90;;;;;;5076312;28;20045;-58
2023/01/20 09:18:37;;;;;;;30.20;13.57;;;0.60;99.90;;;;;;5077326;28;20095;-58
2023/01/20 09:21:06;;;;;;;31.77;14.32;;;0.80;99.90;;;;;;5084977;28;20044;-59
2023/01/20 09:23:33;;;;;;;34.13;14.10;;;0.60;99.90;;;;;;5095097;28;20075;-58
2023/01/20 09:26:00;;;;;;;31.80;13.88;;;0.80;99.90;;;;;;5098049;28;20043;-57
2023/01/20 09:28:26;;;;;;;29.35;14.27;;;0.40;99.90;;;;;;5088218;28;20036;-57
2023/01/20 09:30:59;;;;;;;29.30;13.05;;;0.50;99.90;;;;;;5085867;28;20076;-58
2023/01/20 09:33:25;;;;;;;30.75;12.63;;;0.70;99.90;;;;;;5082677;28;20044;-57
2023/01/20 09:35:58;;;;;;;30.33;13.40;;;0.60;99.90;;;;;;5058001;28;20666;-56
2023/01/20 09:44:28;;;;;;;30.45;13.23;;;1.00;99.90;;;;;;5079312;28;20113;-56
2023/01/20 09:47:20;;;;;;;32.80;13.25;;;0.90;99.90;;;;;;5080360;28;20040;-58
2023/01/20 09:55:31;;;;;;;28.33;13.07;;;0.70;99.90;;;;;;5098352;28;20443;-58
2023/01/20 09:58:13;;;;;;;32.72;14.23;;;0.90;99.90;;;;;;5098868;28;20092;-58
2023/01/20 10:00:41;;;;;;;31.00;12.75;;;0.60;99.90;;;;;;5101508;28;20044;-58
2023/01/20 10:03:46;;;;;;;30.90;12.55;;;1.00;99.90;;;;;;5098999;28;20036;-58
2023/01/20 10:06:40;;;;;;;31.73;13.20;;;1.00;99.90;;;;;;5043604;28;20056;-58
2023/01/20 10:09:47;;;;;;;31.70;12.45;;;0.70;99.90;;;;;;5053932;28;20048;-58
2023/01/20 10:12:33;;;;;;;30.27;12.60;;;0.70;99.90;;;;;;5100055;28;20042;-58
2023/01/20 10:15:17;;;;;;;34.17;12.45;;;0.80;99.90;;;;;;5098588;28;20498;-58
2023/01/20 10:18:11;;;;;;;31.50;12.27;;;0.80;99.90;;;;;;5099779;28;20547;-57
2023/01/20 10:20:49;;;;;;;30.50;12.43;;;1.00;99.90;;;;;;5099924;28;20036;-58
2023/01/20 10:23:41;;;;;;;30.17;12.70;;;1.10;99.90;;;;;;5089915;28;20092;-58
2023/01/20 10:26:10;;;;;;;33.63;12.35;;;1.00;99.90;;;;;;5088885;28;20040;-59
2023/01/20 10:28:46;;;;;;;28.55;12.18;;;1.40;99.90;;;;;;5086488;28;20040;-58
2023/01/20 10:31:17;;;;;;;25.23;12.07;;;1.10;99.90;;;;;;5088867;28;20041;-59
2023/01/20 10:33:44;;;;;;;30.70;12.82;;;0.90;99.90;;;;;;5088005;28;20040;-59
2023/01/20 10:36:25;;;;;;;25.55;12.10;;;1.20;99.90;;;;;;5069016;28;20535;-58
2023/01/20 10:39:00;;;;;;;27.98;12.30;;;1.00;99.90;;;;;;5089257;28;20095;-58
2023/01/20 10:41:36;;;;;;;28.65;13.50;;;1.30;99.90;;;;;;5084678;28;20090;-58
2023/01/20 10:44:08;;;;;;;29.80;13.10;;;1.40;99.90;;;;;;5098371;28;20385;-58
2023/01/20 10:46:49;;;;;;;31.13;12.57;;;1.10;99.90;;;;;;5080884;28;20055;-58
2023/01/20 10:49:25;;;;;;;31.10;12.55;;;1.10;99.90;;;;;;5097498;28;20043;-58
2023/01/20 10:51:51;;;;;;;29.02;12.88;;;1.30;99.90;;;;;;5100579;28;20048;-58
2023/01/20 10:54:41;;;;;;;30.50;12.18;;;1.10;99.90;;;;;;5088554;28;20530;-58
2023/01/20 10:57:12;;;;;;;32.90;13.07;;;1.10;99.90;;;;;;5079406;28;20054;-58
2023/01/20 10:59:49;;;;;;;30.77;13.10;;;1.30;99.90;;;;;;5080383;28;20296;-57
2023/01/20 11:02:30;;;;;;;31.40;12.60;;;1.00;99.90;;;;;;5077513;28;20048;-58
2023/01/20 11:04:58;;;;;;;33.10;13.32;;;1.30;99.90;;;;;;5080188;28;20069;-58
2023/01/20 11:07:26;;;;;;;30.17;12.13;;;1.30;99.90;;;;;;5077733;28;20037;-58
2023/01/20 11:09:52;;;;;;;30.45;12.85;;;1.40;99.90;;;;;;5079690;28;20072;-58
2023/01/20 11:12:26;;;;;;;29.30;12.20;;;1.30;99.90;;;;;;5079751;28;20048;-57
2023/01/20 11:14:54;;;;;;;27.27;12.05;;;1.50;99.90;;;;;;5059183;28;20505;-57
2023/01/20 11:17:20;;;;;;;32.88;13.18;;;1.20;99.90;;;;;;5080289;28;20088;-58
2023/01/20 11:19:47;;;;;;;28.40;12.27;;;1.20;99.90;;;;;;5077369;28;20086;-58
2023/01/20 11:22:21;;;;;;;26.67;11.23;;;1.50;99.90;;;;;;5079925;28;20044;-56
2023/01/20 11:24:52;;;;;;;27.52;11.60;;;1.30;99.90;;;;;;5078058;28;20029;-57
2023/01/20 11:27:21;;;;;;;28.23;12.13;;;1.40;99.90;;;;;;5077488;28;20041;-57
2023/01/20 11:30:05;;;;;;;26.65;11.73;;;1.20;99.90;;;;;;5080121;28;20051;-57
2023/01/20 11:32:36;;;;;;;31.05;12.77;;;1.40;99.90;;;;;;5087316;28;20044;-57
2023/01/20 11:35:23;;;;;;;24.92;11.05;;;1.50;99.90;;;;;;5099779;28;20077;-57
2023/01/20 11:37:49;;;;;;;29.77;12.32;;;1.40;99.90;;;;;;5080597;28;20080;-57
2023/01/20 11:40:18;;;;;;;23.45;10.63;;;1.30;99.90;;;;;;5097970;28;20032;-57
2023/01/20 11:42:46;;;;;;;25.13;10.20;;;1.20;99.90;;;;;;5089135;28;20063;-57
2023/01/20 11:45:33;;;;;;;31.65;11.70;;;1.50;99.90;;;;;;5078571;28;20098;-57
2023/01/20 11:48:14;;;;;;;27.15;11.18;;;1.50;99.90;;;;;;5087852;28;20564;-58
2023/01/20 11:50:59;;;;;;;22.13;8.63;;;1.50;99.90;;;;;;5078581;28;20489;-57
2023/01/20 11:53:30;;;;;;;32.97;11.82;;;1.20;99.90;;;;;;5084441;28;20052;-57
2023/01/20 11:55:58;;;;;;;24.55;10.88;;;1.30;99.90;;;;;;5060976;28;20048;-57
2023/01/20 11:58:45;;;;;;;31.25;13.13;;;1.30;99.90;;;;;;5076209;28;20082;-57
2023/01/20 12:01:23;;;;;;;31.15;11.40;;;1.60;99.90;;;;;;5081727;28;20056;-57
2023/01/20 12:03:58;;;;;;;29.63;12.32;;;1.30;99.90;;;;;;5082588;28;20041;-57
2023/01/20 12:06:48;;;;;;;28.58;12.75;;;1.40;99.90;;;;;;5064991;28;20735;-57
2023/01/20 12:09:17;;;;;;;30.10;11.88;;;1.30;99.90;;;;;;5092321;28;20036;-58
2023/01/20 12:11:45;;;;;;;29.00;10.73;;;1.30;99.90;;;;;;5086137;28;20076;-58
2023/01/20 12:14:22;;;;;;;27.13;11.52;;;1.10;99.90;;;;;;5098222;28;20043;-58
2023/01/20 12:17:11;;;;;;;26.20;11.00;;;1.40;99.90;;;;;;5099410;28;20252;-58
2023/01/20 12:20:10;;;;;;;25.25;11.52;;;1.10;99.90;;;;;;5038598;28;20044;-58
2023/01/20 12:22:57;;;;;;;29.90;12.85;;;1.30;99.90;;;;;;5074975;28;20087;-58
2023/01/20 12:25:55;;;;;;;26.33;10.55;;;1.00;99.90;;;;;;5102744;28;20304;-58
2023/01/20 12:28:30;;;;;;;27.35;10.98;;;1.20;99.90;;;;;;5080363;28;20614;-58
2023/01/20 12:31:00;;;;;;;26.77;12.25;;;1.20;99.90;;;;;;5101523;28;20047;-58
2023/01/20 12:33:34;;;;;;;28.60;11.60;;;1.20;99.90;;;;;;5101530;28;20186;-58
2023/01/20 12:36:02;;;;;;;27.67;10.93;;;1.20;99.90;;;;;;5100285;28;20048;-58
2023/01/20 12:38:32;;;;;;;23.85;10.30;;;1.50;99.90;;;;;;5102946;28;20056;-58
2023/01/20 12:41:03;;;;;;;24.20;9.77;;;1.40;99.90;;;;;;5099798;28;20051;-58
2023/01/20 12:44:10;;;;;;;31.70;12.45;;;1.50;99.90;;;;;;5101696;28;20040;-58
2023/01/20 12:46:50;;;;;;;27.67;11.38;;;1.40;99.90;;;;;;5053902;28;20051;-58
2023/01/20 12:49:50;;;;;;;24.50;10.40;;;1.40;99.90;;;;;;5099620;28;20047;-58
2023/01/20 12:52:21;;;;;;;28.90;11.73;;;1.50;99.90;;;;;;5102265;28;20058;-58
2023/01/20 12:55:11;;;;;;;29.95;12.45;;;1.10;99.90;;;;;;5086738;28;20598;-59
2023/01/20 12:57:43;;;;;;;29.98;11.65;;;1.40;99.90;;;;;;5078727;28;20070;-59
2023/01/20 13:00:23;;;;;;;23.85;9.93;;;1.40;99.90;;;;;;5081945;28;20036;-57
2023/01/20 13:03:04;;;;;;;26.83;11.02;;;1.40;99.90;;;;;;5060495;28;20501;-58
2023/01/20 13:05:45;;;;;;;29.50;11.73;;;1.30;99.90;;;;;;5081168;28;20049;-57
2023/01/20 13:08:26;;;;;;;28.52;11.68;;;1.30;99.90;;;;;;5081107;28;20060;-58
2023/01/20 13:10:54;;;;;;;23.35;10.60;;;1.30;99.90;;;;;;5077807;28;20049;-58